<?xml version="1.0" encoding="UTF-8" standalone="no" ?>
<gpx xmlns="http://www.topografix.com/GPX/1/1" xmlns:xsi="http://www.w3.org/2001/XMLSchema-instance" xsi:schemaLocation="http://www.topografix.com/GPX/1/1 http://www.topografix.com/GPX/1/1/gpx.xsd" version="1.1" creator="VisuGPX - https://www.visugpx.com">
  <metadata>
    <name>Venise-Pamir J88 - Tadjikistan - Pamir Highway</name>
    <desc><![CDATA[Paysages somptueux. Route défoncée sur 40km. Col à 4300m. Arrivée à Mourghab.
Dommage que le GPS se soit planté pour la 2ème partie de la trace!]]></desc>
  </metadata>
  <trk>
    <name><![CDATA[Venise-Pamir J88 - Tadjikistan - Pamir Highway_1]]></name>
    <trkseg>
      <trkpt lat="37.58486" lon="72.58566">
        <ele>2848.1</ele>
        <time>2018-08-28T03:30:59.000Z</time>
      </trkpt>
      <trkpt lat="37.577" lon="72.58971">
        <ele>3583.7</ele>
        <time>2018-08-28T03:32:00.000Z</time>
      </trkpt>
      <trkpt lat="37.57586" lon="72.59066">
        <ele>3562</ele>
        <time>2018-08-28T03:50:10.000Z</time>
      </trkpt>
      <trkpt lat="37.57512" lon="72.59209">
        <ele>3568.1</ele>
        <time>2018-08-28T03:51:12.000Z</time>
      </trkpt>
      <trkpt lat="37.5744" lon="72.59355">
        <ele>3577.2</ele>
        <time>2018-08-28T03:52:35.000Z</time>
      </trkpt>
      <trkpt lat="37.57364" lon="72.59498">
        <ele>3582.5</ele>
        <time>2018-08-28T03:53:50.000Z</time>
      </trkpt>
      <trkpt lat="37.57293" lon="72.59644">
        <ele>3586.9</ele>
        <time>2018-08-28T03:55:00.000Z</time>
      </trkpt>
      <trkpt lat="37.57195" lon="72.59851">
        <ele>3585.7</ele>
        <time>2018-08-28T03:56:01.000Z</time>
      </trkpt>
      <trkpt lat="37.57138" lon="72.60076">
        <ele>3588.2</ele>
        <time>2018-08-28T03:57:02.000Z</time>
      </trkpt>
      <trkpt lat="37.57116" lon="72.60246">
        <ele>3591.4</ele>
        <time>2018-08-28T03:58:03.000Z</time>
      </trkpt>
      <trkpt lat="37.57127" lon="72.60417">
        <ele>3590.6</ele>
        <time>2018-08-28T03:59:14.000Z</time>
      </trkpt>
      <trkpt lat="37.57149" lon="72.60586">
        <ele>3597.1</ele>
        <time>2018-08-28T04:00:29.000Z</time>
      </trkpt>
      <trkpt lat="37.5708" lon="72.60808">
        <ele>3604.2</ele>
        <time>2018-08-28T04:01:30.000Z</time>
      </trkpt>
      <trkpt lat="37.5708" lon="72.60984">
        <ele>3601.9</ele>
        <time>2018-08-28T04:03:33.000Z</time>
      </trkpt>
      <trkpt lat="37.57074" lon="72.61371">
        <ele>3603.6</ele>
        <time>2018-08-28T04:04:34.000Z</time>
      </trkpt>
      <trkpt lat="37.56967" lon="72.61645">
        <ele>3614.3</ele>
        <time>2018-08-28T04:05:35.000Z</time>
      </trkpt>
      <trkpt lat="37.5685" lon="72.61827">
        <ele>3621.8</ele>
        <time>2018-08-28T04:06:36.000Z</time>
      </trkpt>
      <trkpt lat="37.56791" lon="72.61996">
        <ele>3623.4</ele>
        <time>2018-08-28T04:07:37.000Z</time>
      </trkpt>
      <trkpt lat="37.56736" lon="72.62213">
        <ele>3623.5</ele>
        <time>2018-08-28T04:08:38.000Z</time>
      </trkpt>
      <trkpt lat="37.56804" lon="72.62402">
        <ele>3618.7</ele>
        <time>2018-08-28T04:09:39.000Z</time>
      </trkpt>
      <trkpt lat="37.56869" lon="72.62552">
        <ele>3630.2</ele>
        <time>2018-08-28T04:11:23.000Z</time>
      </trkpt>
      <trkpt lat="37.56811" lon="72.62707">
        <ele>3644.2</ele>
        <time>2018-08-28T04:12:53.000Z</time>
      </trkpt>
      <trkpt lat="37.56761" lon="72.62868">
        <ele>3646.4</ele>
        <time>2018-08-28T04:13:57.000Z</time>
      </trkpt>
      <trkpt lat="37.56662" lon="72.632">
        <ele>3643.7</ele>
        <time>2018-08-28T04:14:58.000Z</time>
      </trkpt>
      <trkpt lat="37.56606" lon="72.63393">
        <ele>3647.5</ele>
        <time>2018-08-28T04:15:59.000Z</time>
      </trkpt>
      <trkpt lat="37.56552" lon="72.63571">
        <ele>3653</ele>
        <time>2018-08-28T04:17:00.000Z</time>
      </trkpt>
      <trkpt lat="37.56512" lon="72.63734">
        <ele>3652.2</ele>
        <time>2018-08-28T04:21:50.000Z</time>
      </trkpt>
      <trkpt lat="37.56477" lon="72.63899">
        <ele>3671.3</ele>
        <time>2018-08-28T04:24:03.000Z</time>
      </trkpt>
      <trkpt lat="37.56476" lon="72.6407">
        <ele>3688.4</ele>
        <time>2018-08-28T04:26:07.000Z</time>
      </trkpt>
      <trkpt lat="37.56456" lon="72.64239">
        <ele>3698.5</ele>
        <time>2018-08-28T04:28:01.000Z</time>
      </trkpt>
      <trkpt lat="37.56178" lon="72.64506">
        <ele>3689.6</ele>
        <time>2018-08-28T04:29:02.000Z</time>
      </trkpt>
      <trkpt lat="37.56042" lon="72.64979">
        <ele>3678.3</ele>
        <time>2018-08-28T04:30:03.000Z</time>
      </trkpt>
      <trkpt lat="37.5597" lon="72.65124">
        <ele>3695.7</ele>
        <time>2018-08-28T04:31:19.000Z</time>
      </trkpt>
      <trkpt lat="37.55894" lon="72.65268">
        <ele>3701.2</ele>
        <time>2018-08-28T04:32:46.000Z</time>
      </trkpt>
      <trkpt lat="37.55838" lon="72.65425">
        <ele>3706.4</ele>
        <time>2018-08-28T04:33:53.000Z</time>
      </trkpt>
      <trkpt lat="37.55823" lon="72.65594">
        <ele>3713.1</ele>
        <time>2018-08-28T04:35:22.000Z</time>
      </trkpt>
      <trkpt lat="37.55765" lon="72.65749">
        <ele>3716.7</ele>
        <time>2018-08-28T04:37:02.000Z</time>
      </trkpt>
      <trkpt lat="37.55673" lon="72.65874">
        <ele>3717.9</ele>
        <time>2018-08-28T04:38:39.000Z</time>
      </trkpt>
      <trkpt lat="37.55519" lon="72.66006">
        <ele>3716.5</ele>
        <time>2018-08-28T04:39:40.000Z</time>
      </trkpt>
      <trkpt lat="37.5522" lon="72.66151">
        <ele>3718</ele>
        <time>2018-08-28T04:40:41.000Z</time>
      </trkpt>
      <trkpt lat="37.5506" lon="72.66388">
        <ele>3718.6</ele>
        <time>2018-08-28T04:41:42.000Z</time>
      </trkpt>
      <trkpt lat="37.55034" lon="72.6656">
        <ele>3714.3</ele>
        <time>2018-08-28T04:42:57.000Z</time>
      </trkpt>
      <trkpt lat="37.54893" lon="72.66679">
        <ele>3713.6</ele>
        <time>2018-08-28T04:43:58.000Z</time>
      </trkpt>
      <trkpt lat="37.54787" lon="72.66784">
        <ele>3729.5</ele>
        <time>2018-08-28T04:45:50.000Z</time>
      </trkpt>
      <trkpt lat="37.54656" lon="72.66835">
        <ele>3741.2</ele>
        <time>2018-08-28T04:48:28.000Z</time>
      </trkpt>
      <trkpt lat="37.54518" lon="72.66776">
        <ele>3747.5</ele>
        <time>2018-08-28T04:49:29.000Z</time>
      </trkpt>
      <trkpt lat="37.54348" lon="72.66794">
        <ele>3752</ele>
        <time>2018-08-28T04:50:30.000Z</time>
      </trkpt>
      <trkpt lat="37.54231" lon="72.66882">
        <ele>3748.6</ele>
        <time>2018-08-28T04:52:03.000Z</time>
      </trkpt>
      <trkpt lat="37.54122" lon="72.66985">
        <ele>3749.7</ele>
        <time>2018-08-28T04:53:24.000Z</time>
      </trkpt>
      <trkpt lat="37.53946" lon="72.67022">
        <ele>3759.2</ele>
        <time>2018-08-28T04:54:25.000Z</time>
      </trkpt>
      <trkpt lat="37.53811" lon="72.67044">
        <ele>3766.4</ele>
        <time>2018-08-28T04:55:26.000Z</time>
      </trkpt>
      <trkpt lat="37.53679" lon="72.67089">
        <ele>3779.4</ele>
        <time>2018-08-28T04:56:48.000Z</time>
      </trkpt>
      <trkpt lat="37.53548" lon="72.67135">
        <ele>3792.5</ele>
        <time>2018-08-28T04:57:49.000Z</time>
      </trkpt>
      <trkpt lat="37.53392" lon="72.6723">
        <ele>3806.6</ele>
        <time>2018-08-28T04:58:50.000Z</time>
      </trkpt>
      <trkpt lat="37.53276" lon="72.67432">
        <ele>3778.3</ele>
        <time>2018-08-28T04:59:51.000Z</time>
      </trkpt>
      <trkpt lat="37.53079" lon="72.67582">
        <ele>3768.4</ele>
        <time>2018-08-28T05:00:52.000Z</time>
      </trkpt>
      <trkpt lat="37.52883" lon="72.67558">
        <ele>3775.1</ele>
        <time>2018-08-28T05:01:53.000Z</time>
      </trkpt>
      <trkpt lat="37.52705" lon="72.67501">
        <ele>3781.5</ele>
        <time>2018-08-28T05:02:54.000Z</time>
      </trkpt>
      <trkpt lat="37.52511" lon="72.67441">
        <ele>3778.9</ele>
        <time>2018-08-28T05:03:55.000Z</time>
      </trkpt>
      <trkpt lat="37.52325" lon="72.67463">
        <ele>3777.6</ele>
        <time>2018-08-28T05:04:56.000Z</time>
      </trkpt>
      <trkpt lat="37.52206" lon="72.67597">
        <ele>3784.2</ele>
        <time>2018-08-28T05:05:57.000Z</time>
      </trkpt>
      <trkpt lat="37.52094" lon="72.67716">
        <ele>3780.6</ele>
        <time>2018-08-28T05:06:58.000Z</time>
      </trkpt>
      <trkpt lat="37.51916" lon="72.67819">
        <ele>3790.4</ele>
        <time>2018-08-28T05:07:59.000Z</time>
      </trkpt>
      <trkpt lat="37.51765" lon="72.67862">
        <ele>3791.1</ele>
        <time>2018-08-28T05:09:00.000Z</time>
      </trkpt>
      <trkpt lat="37.51628" lon="72.67898">
        <ele>3785.5</ele>
        <time>2018-08-28T05:10:01.000Z</time>
      </trkpt>
      <trkpt lat="37.51494" lon="72.67932">
        <ele>3789.9</ele>
        <time>2018-08-28T05:11:11.000Z</time>
      </trkpt>
      <trkpt lat="37.51362" lon="72.67971">
        <ele>3788.5</ele>
        <time>2018-08-28T05:12:33.000Z</time>
      </trkpt>
      <trkpt lat="37.51234" lon="72.68024">
        <ele>3786.6</ele>
        <time>2018-08-28T05:13:53.000Z</time>
      </trkpt>
      <trkpt lat="37.51105" lon="72.68076">
        <ele>3790.6</ele>
        <time>2018-08-28T05:15:09.000Z</time>
      </trkpt>
      <trkpt lat="37.50976" lon="72.68129">
        <ele>3797</ele>
        <time>2018-08-28T05:16:50.000Z</time>
      </trkpt>
      <trkpt lat="37.50846" lon="72.68176">
        <ele>3801.7</ele>
        <time>2018-08-28T05:18:34.000Z</time>
      </trkpt>
      <trkpt lat="37.50717" lon="72.68227">
        <ele>3809</ele>
        <time>2018-08-28T05:19:56.000Z</time>
      </trkpt>
      <trkpt lat="37.50587" lon="72.68279">
        <ele>3812.8</ele>
        <time>2018-08-28T05:21:13.000Z</time>
      </trkpt>
      <trkpt lat="37.50458" lon="72.68328">
        <ele>3814.6</ele>
        <time>2018-08-28T05:22:28.000Z</time>
      </trkpt>
      <trkpt lat="37.50328" lon="72.6838">
        <ele>3813.1</ele>
        <time>2018-08-28T05:23:43.000Z</time>
      </trkpt>
      <trkpt lat="37.50204" lon="72.6845">
        <ele>3813.4</ele>
        <time>2018-08-28T05:25:11.000Z</time>
      </trkpt>
      <trkpt lat="37.50113" lon="72.68576">
        <ele>3816.8</ele>
        <time>2018-08-28T05:26:57.000Z</time>
      </trkpt>
      <trkpt lat="37.50026" lon="72.68707">
        <ele>3828.6</ele>
        <time>2018-08-28T05:28:55.000Z</time>
      </trkpt>
      <trkpt lat="37.4992" lon="72.68814">
        <ele>3842.6</ele>
        <time>2018-08-28T05:30:48.000Z</time>
      </trkpt>
      <trkpt lat="37.49811" lon="72.68916">
        <ele>3862.3</ele>
        <time>2018-08-28T05:32:28.000Z</time>
      </trkpt>
      <trkpt lat="37.49722" lon="72.69045">
        <ele>3879.4</ele>
        <time>2018-08-28T05:33:59.000Z</time>
      </trkpt>
      <trkpt lat="37.49653" lon="72.69193">
        <ele>3897.1</ele>
        <time>2018-08-28T05:35:35.000Z</time>
      </trkpt>
      <trkpt lat="37.4958" lon="72.69337">
        <ele>3909.8</ele>
        <time>2018-08-28T05:37:01.000Z</time>
      </trkpt>
      <trkpt lat="37.49497" lon="72.69513">
        <ele>3921.2</ele>
        <time>2018-08-28T05:38:02.000Z</time>
      </trkpt>
      <trkpt lat="37.49334" lon="72.69867">
        <ele>3929.4</ele>
        <time>2018-08-28T05:39:03.000Z</time>
      </trkpt>
      <trkpt lat="37.49305" lon="72.70035">
        <ele>3945.4</ele>
        <time>2018-08-28T05:40:26.000Z</time>
      </trkpt>
      <trkpt lat="37.49311" lon="72.70205">
        <ele>3961</ele>
        <time>2018-08-28T05:42:01.000Z</time>
      </trkpt>
      <trkpt lat="37.49356" lon="72.70367">
        <ele>3964.2</ele>
        <time>2018-08-28T05:43:16.000Z</time>
      </trkpt>
      <trkpt lat="37.49416" lon="72.7052">
        <ele>3942.2</ele>
        <time>2018-08-28T05:44:33.000Z</time>
      </trkpt>
      <trkpt lat="37.49437" lon="72.70689">
        <ele>3947.3</ele>
        <time>2018-08-28T05:46:17.000Z</time>
      </trkpt>
      <trkpt lat="37.49423" lon="72.70859">
        <ele>3916.1</ele>
        <time>2018-08-28T05:54:07.000Z</time>
      </trkpt>
      <trkpt lat="37.49415" lon="72.71029">
        <ele>3897.7</ele>
        <time>2018-08-28T05:56:02.000Z</time>
      </trkpt>
      <trkpt lat="37.49429" lon="72.71199">
        <ele>3900.5</ele>
        <time>2018-08-28T05:57:52.000Z</time>
      </trkpt>
      <trkpt lat="37.49441" lon="72.7137">
        <ele>3910.5</ele>
        <time>2018-08-28T05:59:41.000Z</time>
      </trkpt>
      <trkpt lat="37.49452" lon="72.7154">
        <ele>3921.6</ele>
        <time>2018-08-28T06:01:23.000Z</time>
      </trkpt>
      <trkpt lat="37.49432" lon="72.71708">
        <ele>3937.5</ele>
        <time>2018-08-28T06:03:19.000Z</time>
      </trkpt>
      <trkpt lat="37.49391" lon="72.7187">
        <ele>3958.4</ele>
        <time>2018-08-28T06:04:48.000Z</time>
      </trkpt>
      <trkpt lat="37.49346" lon="72.72033">
        <ele>3943.7</ele>
        <time>2018-08-28T06:12:38.000Z</time>
      </trkpt>
      <trkpt lat="37.49322" lon="72.72214">
        <ele>3944.7</ele>
        <time>2018-08-28T06:13:39.000Z</time>
      </trkpt>
      <trkpt lat="37.49317" lon="72.72387">
        <ele>3950.2</ele>
        <time>2018-08-28T06:16:45.000Z</time>
      </trkpt>
      <trkpt lat="37.49361" lon="72.72547">
        <ele>3961.7</ele>
        <time>2018-08-28T06:18:13.000Z</time>
      </trkpt>
      <trkpt lat="37.49395" lon="72.72712">
        <ele>3977</ele>
        <time>2018-08-28T06:19:24.000Z</time>
      </trkpt>
      <trkpt lat="37.4927" lon="72.72778">
        <ele>3978.7</ele>
        <time>2018-08-28T06:20:55.000Z</time>
      </trkpt>
      <trkpt lat="37.49296" lon="72.72945">
        <ele>3966.8</ele>
        <time>2018-08-28T06:25:59.000Z</time>
      </trkpt>
      <trkpt lat="37.49331" lon="72.73112">
        <ele>3983.4</ele>
        <time>2018-08-28T06:29:32.000Z</time>
      </trkpt>
      <trkpt lat="37.49206" lon="72.73048">
        <ele>3981.3</ele>
        <time>2018-08-28T06:33:12.000Z</time>
      </trkpt>
      <trkpt lat="37.49072" lon="72.73027">
        <ele>3984.1</ele>
        <time>2018-08-28T06:37:27.000Z</time>
      </trkpt>
      <trkpt lat="37.4896" lon="72.73124">
        <ele>3987.9</ele>
        <time>2018-08-28T06:41:19.000Z</time>
      </trkpt>
      <trkpt lat="37.48846" lon="72.7322">
        <ele>3990.4</ele>
        <time>2018-08-28T06:48:26.000Z</time>
      </trkpt>
      <trkpt lat="37.48836" lon="72.73391">
        <ele>3988.8</ele>
        <time>2018-08-28T06:51:54.000Z</time>
      </trkpt>
      <trkpt lat="37.48867" lon="72.73559">
        <ele>3992.4</ele>
        <time>2018-08-28T06:55:04.000Z</time>
      </trkpt>
      <trkpt lat="37.48866" lon="72.73731">
        <ele>3993.2</ele>
        <time>2018-08-28T07:00:26.000Z</time>
      </trkpt>
      <trkpt lat="37.48841" lon="72.73902">
        <ele>3995.4</ele>
        <time>2018-08-28T07:02:25.000Z</time>
      </trkpt>
      <trkpt lat="37.48879" lon="72.74069">
        <ele>3997</ele>
        <time>2018-08-28T07:06:40.000Z</time>
      </trkpt>
      <trkpt lat="37.48902" lon="72.74239">
        <ele>3998.3</ele>
        <time>2018-08-28T07:08:45.000Z</time>
      </trkpt>
      <trkpt lat="37.48924" lon="72.74502">
        <ele>3995.6</ele>
        <time>2018-08-28T07:16:35.000Z</time>
      </trkpt>
      <trkpt lat="37.75018" lon="73.25268">
        <ele>3880.2</ele>
        <time>2018-08-28T14:14:49.000Z</time>
      </trkpt>
    </trkseg>
  </trk>
</gpx>